Mossel Bay, South Africa

3:46 PM SAST on February 13, 2016 (GMT +0200)
Heatherpark | | Change Station
CLOSE
Current Station
Personal Weather Station
Location: George, WESTERN CAPE
Elevation: 758 ft
Nearby Weather Stations

Elev 758 ft 33.95 °S, 22.43 °E | Updated 20 seconds ago

Partly Cloudy
Partly Cloudy
83.5 °F
Feels Like 86 °F
N
3.8
Wind Variable Wind from North
Gusts 6.0 mph

Today
High -- | Low -- °F
--% Chance of Precip.
Yesterday
High -- | Low -- °F
Precip. -- in
Pressure 29.77 in
Visibility 6.2 miles
Clouds Few 3000 ft
Heat Index 86 °F
Dew Point 68 °F
Humidity 59%
Rainfall 0.02 in
Snow Depth Not available.
6:03 AM 7:27 PM
Waxing Crescent, 31% visible
METAR FAGG 131300Z 20010KT 9999 FEW030 24/19 Q1008
Pressure 29.77 in
Visibility 6.2 miles
Clouds Few 3000 ft
Heat Index 86 °F
Dew Point 68 °F
Humidity 59%
Rainfall 0.02 in
Snow Depth Not available.
6:03 AM 7:27 PM
Waxing Crescent, 31% visible
METAR FAGG 131300Z 20010KT 9999 FEW030 24/19 Q1008

10-Day Weather Forecast

No radar image for this location.
×

Almanac

Astronomy

Feb. 13, 2016 Rise Set
Actual Time
Civil Twilight
Nautical Twilight
Astronomical Twilight
Moon
Length of Visible Light
Length of Day
Tomorrow will be .
, % of the Moon is Illuminated

Today's Extremes

Country Highs Country Lows

Community

WunderPhotos

Upload Photos

1,892,547 photos uploaded!

WunderBlog® & News

Nearby

Air Quality

  Air Quality AQ Index Pollutant
Not available.

Snow Depth

Station Depth Elevation

Earthquake Activity

City Distance Mag. Time & Date
Minimum magnitude displayed is 2.5.

Coastal Water Temperatures

Place Temperature

Stations

Nearby Weather Stations

Station Location Temp. Windchill Dew Point Humidity Wind Precip. Elev Updated Type